INFORMACIÓN METAR y TAF
METAR FOR LECO
ADDS - METARS form results

(0413 UTC 29 June 2022)
Data provider http://aviationweather.gov/metar/data/
 
METAR text: LECO 290400Z VRB01KT 9999 FEW017 SCT048 14/13 Q1019 NOSIG
Conditions at: LECO (LA CORUNA/ALVEDR, ES) observed 0400 UTC 29 June 2022
Temperature: 14.0°C (57°F)
Dewpoint: 13.0°C (55°F) [RH = 94%]
Pressure (altimeter): 30.09 inches Hg (1019.0 mb)
Winds: variable direction winds at 1 MPH (1 knots; 0.5 m/s)
Visibility: 6 or more miles (10+ km)
Ceiling: at least 12,000 feet AGL
Clouds: few clouds at 1700 feet AGL
scattered clouds at 4800 feet AGL
Weather: no significant weather observed at this time

METAR text: LECO 290330Z VRB01KT 9999 FEW014 SCT048 15/13 Q1019 NOSIG
Conditions at: LECO (LA CORUNA/ALVEDR, ES) observed 0330 UTC 29 June 2022
Temperature: 15.0°C (59°F)
Dewpoint: 13.0°C (55°F) [RH = 88%]
Pressure (altimeter): 30.09 inches Hg (1019.0 mb)
Winds: variable direction winds at 1 MPH (1 knots; 0.5 m/s)
Visibility: 6 or more miles (10+ km)
Ceiling: at least 12,000 feet AGL
Clouds: few clouds at 1400 feet AGL
scattered clouds at 4800 feet AGL
Weather: no significant weather observed at this time

Forecast for: LECO (LA CORUNA/ALVEDR, ES)
Text: TAF LECO 290200Z 2903/3003 30008KT 9999 SCT025 BKN040 TX18/2915Z TN13/2905Z
Forecast period: 0300 UTC 29 June 2022 to 0300 UTC 30 June 2022
Forecast type: FROM: standard forecast or significant change
Winds: from the WNW (300 degrees) at 9 MPH (8 knots; 4.1 m/s)
Visibility: 6 or more miles (10+ km)
Ceiling: 4000 feet AGL
Clouds: scattered clouds at 2500 feet AGL
broken clouds at 4000 feet AGL
Weather: no significant weather forecast for this period
Text: PROB40
Forecast period: 0300 to 1100 UTC 29 June 2022
Forecast type: TEMPORARY: The following changes expected for less than half the time period
Visibility: 1.86 miles (2.99 km)
Ceiling: 1000 feet AGL
Clouds: broken clouds at 1000 feet AGL
Weather: DZ  (moderate drizzle)
Text: TEMPO 2903/2911 3000 DZ BKN010
Forecast period: 0300 to 0700 UTC 29 June 2022
Forecast type: TEMPORARY: The following changes expected for less than half the time period
Visibility: 0.50 miles (0.80 km)
Ceiling: indefinite ceiling with vertical visibility of 200 feet AGL
Clouds: obscured sky
Weather: BCFG  (patches of fog)

 MAPA DE AEROPUERTO

 INFORMACIÓN DE PISTA
Pista 03 Longitud 6358 ft Ancho 148 ft
Elevación 327 ft Umbral desplazado 0 ft Rumbo de pista 31
Pista 21 Longitud 6358 ft Ancho 148 ft
Elevación 286 ft Umbral desplazado 0 ft Rumbo de pista 211

 FRECUANCIAS DEL AEROPUERTO
Tipo APP Nombre SANTIAGO A Frecuencia 120.2 MHZ
Tipo GND Nombre GND Frecuencia 121.7 MHZ
Tipo TWR Nombre A Coruña T Frecuencia 118.3 MHZ

 RADIO AYUDAS DEL AEROPUERTO
Tipo NDB Nombre La Coruna Frecuencia 401 KHZ
Tipo VOR-DME Nombre La Coruna Frecuencia 115100 KHZ



Powered by Virtual Airlines Manager [v2.6.2]